Time;durP1;ratioP1;P1;durP2;ratioP2;P2;SDS_P1;SDS_P2;PMS_P1;PMS_P2;Temp;Humidity;BMP_temperature;BMP_pressure;BME280_temperature;BME280_humidity;BME280_pressure;Samples;Min_cycle;Max_cycle;Signal;HPM_P1;HPM_P2
2023/06/15 00:01:47;;;;;;;0.00;0.00;;;;;;;18.39;47.79;100659.72;5002249;28;20033;-74
2023/06/15 00:04:12;;;;;;;0.00;0.00;;;;;;;18.32;47.63;100651.81;4990650;28;20021;-74
2023/06/15 00:06:38;;;;;;;0.00;0.00;;;;;;;18.35;47.55;100665.03;4999733;28;20470;-75
2023/06/15 00:09:03;;;;;;;0.00;0.00;;;;;;;18.28;47.81;100648.88;4998710;28;20030;-74
2023/06/15 00:11:29;;;;;;;0.00;0.00;;;;;;;18.28;48.34;100654.41;4998274;28;20088;-73
2023/06/15 00:13:55;;;;;;;0.00;0.00;;;;;;;18.25;47.88;100649.50;4975087;28;20488;-74
2023/06/15 00:16:20;;;;;;;0.00;0.00;;;;;;;18.24;48.66;100658.94;5001808;28;20503;-73
2023/06/15 00:18:48;;;;;;;0.00;0.00;;;;;;;18.23;47.81;100656.47;5003705;28;20100;-74
2023/06/15 00:21:17;;;;;;;0.00;0.00;;;;;;;18.23;48.35;100660.06;5003031;28;20089;-73
2023/06/15 00:23:44;;;;;;;0.00;0.00;;;;;;;18.23;48.03;100662.81;5000915;28;20036;-75
2023/06/15 00:26:11;;;;;;;0.00;0.00;;;;;;;18.21;48.11;100654.03;5007312;28;20064;-74
2023/06/15 00:28:36;;;;;;;0.00;0.00;;;;;;;18.21;48.38;100654.03;5003431;28;20129;-74
2023/06/15 00:31:01;;;;;;;0.00;0.00;;;;;;;18.23;48.57;100660.06;5001698;28;20108;-75
2023/06/15 00:33:27;;;;;;;0.00;0.00;;;;;;;18.23;48.68;100656.47;4995425;28;20071;-76
2023/06/15 00:35:52;;;;;;;0.00;0.00;;;;;;;18.22;48.01;100654.84;4997326;28;20034;-74
2023/06/15 00:38:18;;;;;;;0.00;0.00;;;;;;;18.20;48.73;100655.16;5007086;28;20026;-73
2023/06/15 00:40:43;;;;;;;0.00;0.00;;;;;;;18.22;48.00;100661.19;5001928;28;20081;-73
2023/06/15 00:43:08;;;;;;;0.00;0.00;;;;;;;18.21;48.80;100659.56;4999143;28;20461;-74
2023/06/15 00:45:34;;;;;;;0.00;0.00;;;;;;;18.18;48.45;100651.88;5023502;28;20038;-74
2023/06/15 00:48:00;;;;;;;0.00;0.00;;;;;;;18.18;48.43;100667.66;5017213;28;20034;-72
2023/06/15 00:50:30;;;;;;;0.00;0.00;;;;;;;18.14;48.99;100659.16;5002447;28;20026;-74
2023/06/15 00:52:59;;;;;;;0.00;0.00;;;;;;;18.08;48.62;100663.19;4987741;28;20076;-75
2023/06/15 00:55:25;;;;;;;0.00;0.00;;;;;;;17.98;48.87;100655.13;4988764;28;20101;-74
2023/06/15 00:57:52;;;;;;;0.00;0.00;;;;;;;17.97;49.43;100665.34;4995845;28;20168;-73
2023/06/15 01:00:19;;;;;;;0.00;0.00;;;;;;;17.92;49.57;100657.97;5004234;28;20092;-73
2023/06/15 01:02:48;;;;;;;0.00;0.00;;;;;;;17.90;49.38;100668.53;4985526;28;20491;-74
2023/06/15 01:05:16;;;;;;;0.00;0.00;;;;;;;17.84;49.95;100666.97;5006332;28;20030;-73
2023/06/15 01:07:46;;;;;;;0.00;0.00;;;;;;;17.82;49.70;100669.22;5001533;28;20040;-73
2023/06/15 01:10:12;;;;;;;0.00;0.00;;;;;;;17.77;50.25;100669.31;4999093;28;20034;-72
2023/06/15 01:12:40;;;;;;;0.00;0.00;;;;;;;17.69;50.19;100659.00;5000958;28;20156;-72
2023/06/15 01:15:07;;;;;;;0.00;0.00;;;;;;;17.56;50.62;100655.13;5002056;28;20018;-73
2023/06/15 01:17:33;;;;;;;0.00;0.00;;;;;;;17.49;51.04;100672.09;5007341;28;20034;-73
2023/06/15 01:20:07;;;;;;;0.00;0.00;;;;;;;17.39;51.32;100672.31;5024525;28;20481;-72
2023/06/15 01:22:57;;;;;;;0.00;0.00;;;;;;;17.27;51.80;100670.03;5008163;28;20495;-72
2023/06/15 01:25:44;;;;;;;0.00;0.00;;;;;;;17.18;51.99;100678.22;5000269;28;20432;-72
2023/06/15 01:28:11;;;;;;;0.00;0.00;;;;;;;17.13;52.03;100675.56;4992020;28;20453;-73
2023/06/15 01:30:52;;;;;;;0.00;0.00;;;;;;;17.05;52.08;100667.97;5002216;28;20038;-72
2023/06/15 01:33:18;;;;;;;0.00;0.00;;;;;;;17.03;52.37;100664.69;5017464;28;20563;-72
2023/06/15 01:35:43;;;;;;;0.00;0.00;;;;;;;17.02;52.58;100669.38;5002834;28;20028;-72
2023/06/15 01:38:09;;;;;;;0.00;0.00;;;;;;;17.01;52.90;100676.06;5007532;28;20025;-72
2023/06/15 01:40:37;;;;;;;0.00;0.00;;;;;;;16.98;52.76;100662.00;5007041;28;20074;-72
2023/06/15 01:43:05;;;;;;;0.00;0.00;;;;;;;16.91;52.58;100662.41;5001951;28;20025;-72
2023/06/15 01:45:34;;;;;;;0.00;0.00;;;;;;;16.88;52.71;100663.84;5007342;28;20061;-71
2023/06/15 01:48:02;;;;;;;0.00;0.00;;;;;;;16.82;53.17;100656.75;5003774;28;20511;-72
2023/06/15 01:50:30;;;;;;;0.00;0.00;;;;;;;16.84;52.98;100668.28;5008501;28;20111;-72
2023/06/15 01:52:56;;;;;;;0.00;0.00;;;;;;;16.79;53.29;100668.34;4999973;28;20065;-72
2023/06/15 01:55:22;;;;;;;0.00;0.00;;;;;;;16.79;53.67;100662.03;5002660;28;20113;-73
2023/06/15 01:57:47;;;;;;;0.00;0.00;;;;;;;16.78;53.58;100669.50;5005502;28;20026;-72
2023/06/15 02:00:13;;;;;;;0.00;0.00;;;;;;;16.77;53.47;100667.03;5007934;28;20037;-73
2023/06/15 02:02:38;;;;;;;0.00;0.00;;;;;;;16.75;53.17;100664.59;5005935;28;20034;-74
2023/06/15 02:05:07;;;;;;;0.00;0.00;;;;;;;16.77;53.79;100667.84;5003456;28;20057;-74
2023/06/15 02:07:33;;;;;;;0.00;0.00;;;;;;;16.75;53.54;100670.13;5007241;28;20657;-74
2023/06/15 02:10:00;;;;;;;0.00;0.00;;;;;;;16.72;53.68;100659.66;4999868;28;20041;-73
2023/06/15 02:12:25;;;;;;;0.00;0.00;;;;;;;16.73;53.43;100670.41;4991249;28;20026;-73
2023/06/15 02:14:51;;;;;;;0.00;0.00;;;;;;;16.72;53.37;100673.47;5002906;28;20623;-73
2023/06/15 02:17:17;;;;;;;0.00;0.00;;;;;;;16.69;53.48;100672.13;5012867;28;20062;-73
2023/06/15 02:19:48;;;;;;;0.00;0.00;;;;;;;16.64;53.47;100668.63;4992326;28;20035;-74
2023/06/15 02:22:15;;;;;;;0.00;0.00;;;;;;;16.58;53.53;100665.94;5012162;28;20038;-72
2023/06/15 02:24:42;;;;;;;0.00;0.00;;;;;;;16.55;53.99;100672.06;5000452;28;20126;-72
2023/06/15 02:27:08;;;;;;;0.00;0.00;;;;;;;16.51;53.94;100676.53;5000012;28;20428;-74
2023/06/15 02:29:36;;;;;;;0.00;0.00;;;;;;;16.51;53.85;100676.53;5007242;28;20034;-73
2023/06/15 02:32:02;;;;;;;0.00;0.00;;;;;;;16.46;53.78;100676.63;5000406;28;20030;-72
2023/06/15 02:34:27;;;;;;;0.00;0.00;;;;;;;16.45;53.73;100680.50;5006504;28;20034;-73
2023/06/15 02:36:56;;;;;;;0.00;0.00;;;;;;;16.40;54.06;100675.88;5022071;28;20030;-74
2023/06/15 02:39:21;;;;;;;0.00;0.00;;;;;;;16.37;53.80;100681.19;4991323;28;20030;-77
2023/06/15 02:41:47;;;;;;;0.00;0.00;;;;;;;16.34;53.93;100676.25;4999943;28;20407;-77
2023/06/15 02:44:14;;;;;;;0.00;0.00;;;;;;;16.32;54.15;100673.78;4987276;28;20033;-76
2023/06/15 02:46:40;;;;;;;0.00;0.00;;;;;;;16.34;54.00;100670.72;4999876;28;20034;-77
2023/06/15 02:49:06;;;;;;;0.00;0.00;;;;;;;16.35;53.86;100678.75;5001833;28;20036;-76
2023/06/15 02:51:32;;;;;;;0.00;0.00;;;;;;;16.34;54.16;100677.09;5017880;28;20030;-77
2023/06/15 02:53:58;;;;;;;0.00;0.00;;;;;;;16.31;53.94;100671.34;5008082;28;20068;-78
2023/06/15 02:56:23;;;;;;;0.00;0.00;;;;;;;16.33;53.70;100680.16;5003931;28;20646;-76
2023/06/15 02:58:53;;;;;;;0.00;0.00;;;;;;;16.34;53.86;100681.78;5007175;28;20080;-74
2023/06/15 03:01:20;;;;;;;0.00;0.00;;;;;;;16.30;53.79;100675.22;5001374;28;20030;-76
2023/06/15 03:03:45;;;;;;;0.00;0.00;;;;;;;16.30;53.34;100678.81;4989716;28;20029;-74
2023/06/15 03:06:11;;;;;;;0.00;0.00;;;;;;;16.30;53.59;100680.75;5001866;28;20837;-75
2023/06/15 03:08:38;;;;;;;0.00;0.00;;;;;;;16.27;53.55;100675.84;5017225;28;20052;-75
2023/06/15 03:11:03;;;;;;;0.00;0.00;;;;;;;16.27;53.53;100681.34;5003819;28;20029;-74
2023/06/15 03:13:29;;;;;;;0.00;0.00;;;;;;;16.26;53.70;100682.47;4990333;28;20135;-74
2023/06/15 03:15:55;;;;;;;0.00;0.00;;;;;;;16.26;53.64;100675.00;4997516;28;20407;-74
2023/06/15 03:18:21;;;;;;;0.00;0.00;;;;;;;16.22;53.74;100680.31;5001890;28;20136;-75
2023/06/15 03:20:52;;;;;;;0.00;0.00;;;;;;;16.25;53.47;100683.56;5003266;28;20096;-74
2023/06/15 03:23:19;;;;;;;0.00;0.00;;;;;;;16.22;53.44;100683.06;5001466;28;20058;-74
2023/06/15 03:25:44;;;;;;;0.00;0.00;;;;;;;16.17;53.58;100674.84;4997178;28;20030;-73
2023/06/15 03:28:10;;;;;;;0.00;0.00;;;;;;;16.15;53.73;100679.84;4992703;28;20421;-73
2023/06/15 03:30:40;;;;;;;0.00;0.00;;;;;;;16.10;53.75;100671.63;5010392;28;20054;-75
2023/06/15 03:33:06;;;;;;;0.00;0.00;;;;;;;16.04;54.17;100675.59;5004527;28;20037;-76
2023/06/15 03:35:32;;;;;;;0.00;0.00;;;;;;;16.02;53.92;100675.88;4984124;28;20060;-76
2023/06/15 03:37:57;;;;;;;0.00;0.00;;;;;;;15.95;54.08;100674.63;5004268;28;20044;-76
2023/06/15 03:40:22;;;;;;;0.00;0.00;;;;;;;15.94;54.19;100681.25;4986401;28;20107;-76
2023/06/15 03:42:48;;;;;;;0.00;0.00;;;;;;;15.90;54.11;100677.41;4976530;28;20030;-76
2023/06/15 03:45:13;;;;;;;0.00;0.00;;;;;;;15.88;54.25;100681.28;5012746;28;20046;-76
2023/06/15 03:47:39;;;;;;;0.00;0.00;;;;;;;15.85;54.55;100687.41;4998167;28;21279;-76
2023/06/15 03:50:06;;;;;;;0.00;0.00;;;;;;;15.81;54.64;100686.38;5024975;28;20029;-74
2023/06/15 03:52:33;;;;;;;0.00;0.00;;;;;;;15.82;54.55;100684.44;4984647;28;20041;-76
2023/06/15 03:54:59;;;;;;;0.00;0.00;;;;;;;15.82;54.75;100681.66;5003563;28;20109;-75
2023/06/15 03:57:25;;;;;;;0.00;0.00;;;;;;;15.83;54.78;100688.84;4993784;28;20125;-74
2023/06/15 03:59:51;;;;;;;0.00;0.00;;;;;;;15.78;54.76;100675.91;5004978;28;20037;-74
2023/06/15 04:02:16;;;;;;;0.00;0.00;;;;;;;15.80;54.84;100687.47;4982608;28;20026;-74
2023/06/15 04:04:42;;;;;;;0.00;0.00;;;;;;;15.81;54.94;100691.88;4998026;28;20030;-74
2023/06/15 04:07:08;;;;;;;0.00;0.00;;;;;;;15.79;54.74;100685.03;5007082;28;20076;-74
2023/06/15 04:09:34;;;;;;;0.00;0.00;;;;;;;15.80;54.77;100678.38;4988274;28;20041;-75
2023/06/15 04:12:00;;;;;;;0.00;0.00;;;;;;;15.87;54.96;100695.38;5018653;28;20025;-73
2023/06/15 04:14:25;;;;;;;0.00;0.00;;;;;;;15.90;54.88;100693.97;5002158;28;20042;-75
2023/06/15 04:16:52;;;;;;;0.00;0.00;;;;;;;15.94;54.96;100690.31;5001802;28;20038;-75
2023/06/15 04:19:22;;;;;;;0.00;0.00;;;;;;;15.96;54.87;100688.09;4996202;28;20025;-75
2023/06/15 04:21:50;;;;;;;0.00;0.00;;;;;;;16.00;54.94;100697.44;4985764;28;20426;-74
2023/06/15 04:24:18;;;;;;;0.00;0.00;;;;;;;16.01;54.98;100687.22;5019161;28;20073;-75
2023/06/15 04:26:43;;;;;;;0.00;0.00;;;;;;;16.09;55.14;100697.59;4997382;28;20033;-74
2023/06/15 04:29:09;;;;;;;0.00;0.00;;;;;;;16.14;54.87;100697.50;5004047;28;20018;-75
2023/06/15 04:31:34;;;;;;;0.00;0.00;;;;;;;16.20;54.84;100692.75;4981832;28;20033;-75
2023/06/15 04:34:04;;;;;;;0.00;0.00;;;;;;;16.23;54.76;100692.97;4987882;28;20146;-76
2023/06/15 04:36:31;;;;;;;0.00;0.00;;;;;;;16.33;54.42;100703.03;5004333;28;20120;-75
2023/06/15 04:38:59;;;;;;;0.00;0.00;;;;;;;16.40;54.85;100702.69;4994771;28;20033;-75
2023/06/15 04:41:27;;;;;;;0.00;0.00;;;;;;;16.47;54.88;100703.13;4997460;28;20042;-75
2023/06/15 04:43:53;;;;;;;0.00;0.00;;;;;;;16.54;54.55;100709.09;4994549;28;20704;-72
2023/06/15 04:46:18;;;;;;;0.00;0.00;;;;;;;16.66;54.12;100710.56;5003516;28;20038;-73
2023/06/15 04:48:44;;;;;;;0.00;0.00;;;;;;;16.75;54.53;100708.78;4996461;28;20106;-74
2023/06/15 04:51:10;;;;;;;0.00;0.00;;;;;;;16.87;53.91;100714.66;5018108;28;20037;-74
2023/06/15 04:53:36;;;;;;;0.00;0.00;;;;;;;16.93;53.86;100707.94;5000232;28;20033;-74
2023/06/15 04:56:01;;;;;;;0.00;0.00;;;;;;;17.06;53.59;100719.34;5001870;28;20379;-75
2023/06/15 04:58:27;;;;;;;0.00;0.00;;;;;;;17.14;53.68;100710.34;5002969;28;20121;-75
2023/06/15 05:00:52;;;;;;;0.00;0.00;;;;;;;17.28;53.40;100716.72;5015061;28;20038;-73
2023/06/15 05:03:18;;;;;;;0.00;0.00;;;;;;;17.38;52.80;100720.44;4998734;28;20019;-73
2023/06/15 05:05:44;;;;;;;0.00;0.00;;;;;;;17.39;53.24;100719.28;5001866;28;20140;-75
2023/06/15 05:08:13;;;;;;;0.00;0.00;;;;;;;17.50;53.04;100731.00;4990696;28;20545;-69
2023/06/15 05:10:39;;;;;;;0.00;0.00;;;;;;;17.56;52.80;100730.56;5025839;28;20104;-74
2023/06/15 05:13:04;;;;;;;0.00;0.00;;;;;;;17.57;53.04;100729.47;4987848;28;20129;-70
2023/06/15 05:15:30;;;;;;;0.00;0.00;;;;;;;17.61;52.52;100724.97;4991430;28;20115;-70
2023/06/15 05:17:55;;;;;;;0.00;0.00;;;;;;;17.66;52.50;100731.53;4984190;28;20030;-70
2023/06/15 05:20:21;;;;;;;0.00;0.00;;;;;;;17.74;52.91;100733.56;4988574;28;20149;-70
2023/06/15 05:22:46;;;;;;;0.00;0.00;;;;;;;17.84;52.74;100736.13;5005211;28;20033;-70
2023/06/15 05:25:12;;;;;;;0.00;0.00;;;;;;;17.95;52.28;100734.81;5001247;28;20034;-69
2023/06/15 05:27:37;;;;;;;0.00;0.00;;;;;;;17.97;52.16;100731.75;4985650;28;20034;-70
2023/06/15 05:30:07;;;;;;;0.00;0.00;;;;;;;18.08;52.15;100743.44;4990866;28;20034;-70
2023/06/15 05:32:37;;;;;;;0.00;0.00;;;;;;;18.17;52.20;100738.81;4992196;28;20025;-69
2023/06/15 05:35:05;;;;;;;0.00;0.00;;;;;;;18.28;51.52;100737.47;4989548;28;20121;-69
2023/06/15 05:37:31;;;;;;;0.00;0.00;;;;;;;18.37;51.36;100742.25;4997360;28;20108;-70
2023/06/15 05:40:47;;;;;;;;;;;;;;;;;;;;;
2023/06/15 05:43:34;;;;;;;0.00;0.00;;;;;;;18.29;51.19;100728.00;4999162;28;20034;-77
2023/06/15 05:46:32;;;;;;;0.00;0.00;;;;;;;18.21;51.65;100720.44;5012960;28;20476;-78
2023/06/15 05:49:08;;;;;;;0.00;0.00;;;;;;;18.23;51.21;100723.72;5026748;28;20050;-78
2023/06/15 05:51:43;;;;;;;0.00;0.00;;;;;;;18.28;50.96;100731.09;4999028;28;20037;-80
2023/06/15 05:54:25;;;;;;;0.00;0.00;;;;;;;18.05;51.24;100694.25;4981389;28;20054;-79
2023/06/15 05:57:09;;;;;;;0.00;0.00;;;;;;;18.42;51.03;100736.59;5007592;28;20387;-79
2023/06/15 06:02:36;;;;;;;0.00;0.00;;;;;;;18.54;50.14;100713.91;5011787;28;20125;-78
2023/06/15 06:05:04;;;;;;;0.00;0.00;;;;;;;18.74;50.37;100726.44;5012034;28;20167;-79
2023/06/15 06:07:29;;;;;;;0.00;0.00;;;;;;;18.70;50.21;100722.66;5004654;28;20507;-79
2023/06/15 06:09:55;;;;;;;0.00;0.00;;;;;;;18.83;50.53;100746.72;4990046;28;20026;-77
2023/06/15 06:12:20;;;;;;;0.00;0.00;;;;;;;18.75;50.21;100728.06;5010133;28;20064;-78
2023/06/15 06:14:48;;;;;;;0.00;0.00;;;;;;;18.87;50.26;100746.97;5005178;28;20088;-80
2023/06/15 06:17:13;;;;;;;0.00;0.00;;;;;;;18.91;50.34;100737.69;5005990;28;20164;-79
2023/06/15 06:19:39;;;;;;;0.00;0.00;;;;;;;19.03;50.23;100739.91;4998736;28;20113;-81
2023/06/15 06:22:07;;;;;;;0.00;0.00;;;;;;;19.13;50.22;100739.63;4979753;28;20121;-79
2023/06/15 06:24:35;;;;;;;0.00;0.00;;;;;;;19.23;50.54;100744.09;5001370;28;20169;-77
2023/06/15 06:27:00;;;;;;;0.00;0.00;;;;;;;19.26;50.76;100743.47;4986855;28;20030;-78
2023/06/15 06:29:26;;;;;;;0.00;0.00;;;;;;;19.42;50.91;100754.16;5005267;28;20033;-78
2023/06/15 06:31:51;;;;;;;0.00;0.00;;;;;;;19.34;50.71;100717.72;4989547;28;20027;-78
2023/06/15 06:34:17;;;;;;;0.00;0.00;;;;;;;19.66;50.32;100760.13;4995103;28;20112;-79
2023/06/15 06:36:42;;;;;;;0.00;0.00;;;;;;;19.63;50.02;100741.38;4993128;28;20048;-79
2023/06/15 06:39:08;;;;;;;0.00;0.00;;;;;;;19.74;50.07;100735.53;5007845;28;20030;-81
2023/06/15 06:41:33;;;;;;;0.00;0.00;;;;;;;19.81;49.75;100731.19;5008928;28;20081;-81
2023/06/15 06:43:58;;;;;;;0.00;0.00;;;;;;;20.03;49.51;100755.28;4994562;28;20034;-80
2023/06/15 06:46:27;;;;;;;0.00;0.00;;;;;;;19.98;50.04;100724.88;4998836;28;20044;-78
2023/06/15 06:48:52;;;;;;;0.00;0.00;;;;;;;20.03;49.42;100721.13;5003906;28;20475;-80
2023/06/15 06:51:26;;;;;;;0.00;0.00;;;;;;;20.22;49.15;100745.81;4993172;28;20030;-81
2023/06/15 06:53:54;;;;;;;0.00;0.00;;;;;;;20.27;49.16;100737.34;5002163;28;20128;-77
2023/06/15 06:56:27;;;;;;;0.00;0.00;;;;;;;20.41;49.00;100745.53;5003340;28;20028;-79
2023/06/15 06:58:56;;;;;;;0.00;0.00;;;;;;;20.51;48.85;100755.50;4994983;28;20030;-79
2023/06/15 07:01:21;;;;;;;0.00;0.00;;;;;;;20.56;49.20;100745.06;4976184;28;20080;-78
2023/06/15 07:03:47;;;;;;;0.00;0.00;;;;;;;20.53;48.79;100733.75;5022246;28;20026;-76
2023/06/15 07:06:13;;;;;;;0.00;0.00;;;;;;;20.72;48.98;100758.47;5010256;28;20739;-76
2023/06/15 07:08:38;;;;;;;0.00;0.00;;;;;;;20.81;48.88;100756.53;5007008;28;20100;-77
2023/06/15 07:11:30;;;;;;;0.00;0.00;;;;;;;20.92;48.40;100757.00;4998491;28;20113;-78
2023/06/15 07:14:03;;;;;;;0.00;0.00;;;;;;;20.92;48.58;100737.56;4980005;28;20054;-77
2023/06/15 07:16:49;;;;;;;0.00;0.00;;;;;;;20.92;48.11;100735.59;5010998;28;20022;-77
2023/06/15 07:19:32;;;;;;;0.00;0.00;;;;;;;21.05;48.20;100747.66;5009483;28;20060;-78
2023/06/15 07:21:57;;;;;;;0.00;0.00;;;;;;;21.07;48.14;100737.06;4996749;28;20037;-77
2023/06/15 07:24:23;;;;;;;0.00;0.00;;;;;;;21.26;48.06;100742.25;5010693;28;20383;-78
2023/06/15 07:26:48;;;;;;;0.00;0.00;;;;;;;21.49;47.48;100760.66;5003278;28;20037;-77
2023/06/15 07:29:26;;;;;;;0.00;0.00;;;;;;;21.57;47.02;100748.75;5004560;28;20029;-75
2023/06/15 07:31:51;;;;;;;0.00;0.00;;;;;;;21.71;47.18;100743.78;5001050;28;20021;-77
2023/06/15 07:34:17;;;;;;;0.00;0.00;;;;;;;21.81;46.40;100748.13;5024764;28;21503;-79
2023/06/15 07:36:44;;;;;;;0.00;0.00;;;;;;;21.97;46.41;100759.53;4988570;28;20101;-76
2023/06/15 07:39:13;;;;;;;0.00;0.00;;;;;;;22.04;46.15;100762.59;5003185;28;20029;-77
2023/06/15 07:41:39;;;;;;;0.00;0.00;;;;;;;22.10;45.76;100744.53;5000687;28;20089;-75
2023/06/15 07:44:14;;;;;;;;;;;;;;;;;;;;;
2023/06/15 07:46:48;;;;;;;0.00;0.00;;;;;;;22.64;45.22;100745.84;5008091;28;20044;-71
2023/06/15 07:49:23;;;;;;;0.00;0.00;;;;;;;22.92;45.22;100753.66;5014527;28;20025;-72
2023/06/15 07:51:53;;;;;;;0.00;0.00;;;;;;;23.10;44.39;100757.94;4997039;28;20036;-71
2023/06/15 07:54:21;;;;;;;0.00;0.00;;;;;;;23.21;44.23;100763.09;4997365;28;20030;-71
2023/06/15 07:56:49;;;;;;;0.00;0.00;;;;;;;23.33;43.90;100766.72;4973756;28;20490;-72
2023/06/15 07:59:17;;;;;;;0.00;0.00;;;;;;;23.37;43.84;100749.28;4994957;28;20120;-72
2023/06/15 08:01:42;;;;;;;0.00;0.00;;;;;;;23.73;43.52;100784.00;5015859;28;20037;-71
2023/06/15 08:04:08;;;;;;;0.00;0.00;;;;;;;23.82;43.91;100785.53;5007508;28;20046;-71
2023/06/15 08:06:34;;;;;;;0.00;0.00;;;;;;;23.92;43.43;100772.28;4990977;28;20110;-72
2023/06/15 08:08:59;;;;;;;0.00;0.00;;;;;;;24.02;42.64;100775.44;5008216;28;20037;-71
2023/06/15 08:11:26;;;;;;;0.00;0.00;;;;;;;24.08;43.30;100766.81;4975762;28;20447;-71
2023/06/15 08:13:51;;;;;;;0.00;0.00;;;;;;;24.20;42.55;100775.22;5008482;28;20095;-72
2023/06/15 08:16:17;;;;;;;0.00;0.00;;;;;;;24.31;42.86;100775.53;5005637;28;20472;-71
2023/06/15 08:18:42;;;;;;;0.00;0.00;;;;;;;24.41;42.52;100769.47;4967444;28;20536;-71
2023/06/15 08:21:08;;;;;;;0.00;0.00;;;;;;;24.50;42.03;100775.75;5009126;28;20030;-72
2023/06/15 08:23:33;;;;;;;0.00;0.00;;;;;;;24.64;42.21;100782.97;4992640;28;20153;-72
2023/06/15 08:25:58;;;;;;;0.00;0.00;;;;;;;24.67;42.01;100771.06;5006825;28;20041;-71
2023/06/15 08:28:24;;;;;;;0.00;0.00;;;;;;;24.79;41.62;100773.03;4988118;28;20480;-70
2023/06/15 08:30:49;;;;;;;0.00;0.00;;;;;;;24.81;41.19;100763.13;5004222;28;20041;-72
2023/06/15 08:33:16;;;;;;;0.00;0.00;;;;;;;24.91;40.99;100776.59;4998784;28;20041;-72
2023/06/15 08:35:42;;;;;;;0.00;0.00;;;;;;;25.00;41.06;100775.63;4991370;28;20514;-72
2023/06/15 08:38:08;;;;;;;0.00;0.00;;;;;;;25.08;41.18;100774.66;4987974;28;20034;-72
2023/06/15 08:40:34;;;;;;;0.00;0.00;;;;;;;25.14;41.08;100773.22;4995417;28;20050;-71
2023/06/15 08:43:01;;;;;;;0.00;0.00;;;;;;;25.24;40.73;100767.09;5005147;28;20447;-72
2023/06/15 08:45:32;;;;;;;0.00;0.00;;;;;;;25.32;40.24;100772.94;5009067;28;20491;-72
2023/06/15 08:48:02;;;;;;;0.00;0.00;;;;;;;25.37;39.94;100772.69;5002501;28;20065;-73
2023/06/15 08:50:27;;;;;;;0.00;0.00;;;;;;;25.49;39.73;100778.19;5008733;28;20034;-73
2023/06/15 08:52:53;;;;;;;0.00;0.00;;;;;;;25.57;39.50;100774.41;5000088;28;20037;-71
2023/06/15 08:55:20;;;;;;;0.00;0.00;;;;;;;25.67;38.77;100777.84;5019768;28;20120;-72
2023/06/15 08:57:46;;;;;;;0.00;0.00;;;;;;;25.73;38.57;100768.00;5000818;28;20156;-72
2023/06/15 09:00:12;;;;;;;0.00;0.00;;;;;;;25.85;38.17;100767.91;5009219;28;20464;-72
2023/06/15 09:02:43;;;;;;;0.00;0.00;;;;;;;25.91;37.57;100765.66;5000783;28;20052;-71
2023/06/15 09:05:09;;;;;;;0.00;0.00;;;;;;;26.00;37.48;100776.72;5007447;28;20025;-71
2023/06/15 09:07:35;;;;;;;0.00;0.00;;;;;;;26.05;37.57;100776.41;5030623;28;20034;-71
2023/06/15 09:10:13;;;;;;;0.00;0.00;;;;;;;26.11;36.72;100774.97;4999438;28;20026;-75
2023/06/15 09:12:41;;;;;;;0.00;0.00;;;;;;;26.19;36.99;100779.56;4999392;28;20132;-71
2023/06/15 09:15:07;;;;;;;0.00;0.00;;;;;;;26.20;36.44;100758.78;5006974;28;20346;-73
2023/06/15 09:17:36;;;;;;;0.00;0.00;;;;;;;26.38;36.60;100778.00;4998114;28;20039;-72
2023/06/15 09:20:02;;;;;;;0.00;0.00;;;;;;;26.47;36.10;100775.78;5007863;28;20026;-73
2023/06/15 09:22:29;;;;;;;0.00;0.00;;;;;;;26.54;36.49;100777.94;4988960;28;20031;-74
2023/06/15 09:24:54;;;;;;;0.00;0.00;;;;;;;26.60;36.34;100780.09;5015972;28;20033;-73
2023/06/15 09:27:20;;;;;;;0.00;0.00;;;;;;;26.74;35.97;100778.81;5000602;28;20034;-73
2023/06/15 09:30:03;;;;;;;0.00;0.00;;;;;;;26.79;35.46;100776.50;5023852;28;20120;-70
2023/06/15 09:32:29;;;;;;;0.00;0.00;;;;;;;26.79;35.33;100775.72;5016443;28;20037;-72
2023/06/15 09:35:00;;;;;;;0.00;0.00;;;;;;;26.78;35.47;100779.69;5000910;28;20037;-72
2023/06/15 09:37:28;;;;;;;0.00;0.00;;;;;;;26.83;34.95;100771.00;5008010;28;20018;-71
2023/06/15 09:39:54;;;;;;;0.00;0.00;;;;;;;26.86;34.93;100775.88;5011117;28;20030;-70
2023/06/15 09:42:26;;;;;;;0.00;0.00;;;;;;;26.87;34.62;100762.63;4992689;28;20104;-71
2023/06/15 09:45:05;;;;;;;0.00;0.00;;;;;;;26.83;34.18;100766.19;5005401;28;20038;-70
2023/06/15 09:47:31;;;;;;;0.00;0.00;;;;;;;26.88;33.92;100773.47;4991056;28;20034;-71
2023/06/15 09:49:58;;;;;;;0.00;0.00;;;;;;;26.81;33.37;100770.56;5004221;28;20035;-70
2023/06/15 09:52:24;;;;;;;0.00;0.00;;;;;;;26.91;33.94;100775.56;5017077;28;20026;-69
2023/06/15 09:54:53;;;;;;;0.00;0.00;;;;;;;27.08;33.84;100779.09;5015035;28;20080;-70
2023/06/15 09:57:19;;;;;;;0.00;0.00;;;;;;;27.28;33.75;100775.09;5010001;28;20026;-71
2023/06/15 09:59:46;;;;;;;0.00;0.00;;;;;;;27.47;33.46;100776.28;4990663;28;20388;-70
2023/06/15 10:02:12;;;;;;;0.00;0.00;;;;;;;27.54;33.35;100775.56;5007871;28;20065;-71
2023/06/15 10:04:40;;;;;;;0.00;0.00;;;;;;;27.77;33.40;100772.75;5002634;28;20037;-72
2023/06/15 10:07:10;;;;;;;0.00;0.00;;;;;;;28.01;32.86;100783.63;4997531;28;20049;-72
2023/06/15 10:09:40;;;;;;;0.00;0.00;;;;;;;28.54;32.17;100782.00;5001722;28;20061;-70
2023/06/15 10:12:11;;;;;;;0.00;0.00;;;;;;;29.53;30.80;100780.00;5010934;28;20116;-71
2023/06/15 10:14:51;;;;;;;0.00;0.00;;;;;;;30.83;28.67;100786.59;5003266;28;20040;-71
2023/06/15 10:17:22;;;;;;;0.00;0.00;;;;;;;31.89;26.99;100792.09;5003500;28;20373;-70
2023/06/15 10:19:52;;;;;;;0.00;0.00;;;;;;;32.84;25.96;100786.69;5011230;28;20076;-71
2023/06/15 10:22:20;;;;;;;0.00;0.00;;;;;;;33.60;24.65;100791.13;4995055;28;20025;-72
2023/06/15 10:24:45;;;;;;;0.00;0.00;;;;;;;34.24;24.17;100790.63;5004173;28;20034;-73
2023/06/15 10:27:11;;;;;;;0.00;0.00;;;;;;;34.70;23.53;100796.22;5014914;28;20029;-71
2023/06/15 10:29:41;;;;;;;0.00;0.00;;;;;;;34.93;23.18;100787.00;5003136;28;20100;-70
2023/06/15 10:32:33;;;;;;;0.00;0.00;;;;;;;35.11;22.69;100781.09;4989614;28;20424;-70
2023/06/15 10:35:01;;;;;;;0.00;0.00;;;;;;;35.25;23.05;100789.44;4999369;28;20038;-70
2023/06/15 10:37:35;;;;;;;0.00;0.00;;;;;;;35.11;23.61;100783.94;5007217;28;20048;-70
2023/06/15 10:40:13;;;;;;;0.00;0.00;;;;;;;34.84;23.68;100793.22;5009331;28;20071;-69
2023/06/15 10:42:43;;;;;;;0.00;0.00;;;;;;;34.68;24.05;100795.81;5004400;28;20068;-71
2023/06/15 10:45:28;;;;;;;0.00;0.00;;;;;;;34.36;24.20;100785.63;4999777;28;20025;-71
2023/06/15 10:47:57;;;;;;;0.00;0.00;;;;;;;34.22;24.48;100787.38;4992671;28;20049;-73
2023/06/15 10:50:24;;;;;;;0.00;0.00;;;;;;;34.23;24.81;100786.16;4991632;28;20026;-71
2023/06/15 10:52:50;;;;;;;0.00;0.00;;;;;;;34.10;24.45;100785.06;4995455;28;20377;-71
2023/06/15 10:55:16;;;;;;;0.00;0.00;;;;;;;33.99;24.96;100785.16;5001340;28;20021;-71
2023/06/15 10:57:41;;;;;;;0.00;0.00;;;;;;;33.82;24.92;100786.94;4995200;28;20488;-70
2023/06/15 11:00:10;;;;;;;0.00;0.00;;;;;;;33.71;25.17;100780.53;5001680;28;20425;-71
2023/06/15 11:02:35;;;;;;;0.00;0.00;;;;;;;33.65;25.32;100782.19;5000238;28;20072;-70
2023/06/15 11:05:08;;;;;;;0.00;0.00;;;;;;;33.62;25.66;100777.38;4995962;28;20477;-72
2023/06/15 11:07:35;;;;;;;0.00;0.00;;;;;;;33.49;25.61;100785.56;5002076;28;20037;-70
2023/06/15 11:10:12;;;;;;;0.00;0.00;;;;;;;33.38;25.62;100791.28;5003060;28;20084;-71
2023/06/15 11:12:43;;;;;;;0.00;0.00;;;;;;;33.35;25.95;100780.78;5020440;28;20482;-71
2023/06/15 11:15:12;;;;;;;0.00;0.00;;;;;;;33.43;25.99;100790.84;4995435;28;20025;-73
2023/06/15 11:17:52;;;;;;;0.00;0.00;;;;;;;33.65;26.29;100785.03;5009706;28;20167;-73
2023/06/15 11:20:42;;;;;;;0.00;0.00;;;;;;;33.93;25.89;100784.81;4995514;28;20036;-73
2023/06/15 11:23:19;;;;;;;0.00;0.00;;;;;;;34.38;25.92;100771.84;5010944;28;20473;-73
2023/06/15 11:25:54;;;;;;;0.00;0.00;;;;;;;34.92;25.61;100768.38;4995204;28;20026;-73
2023/06/15 11:28:22;;;;;;;0.00;0.00;;;;;;;35.79;24.62;100776.44;5000058;28;20036;-72
2023/06/15 11:30:49;;;;;;;0.00;0.00;;;;;;;37.51;22.89;100782.75;5009773;28;20020;-71
2023/06/15 11:33:25;;;;;;;0.00;0.00;;;;;;;39.50;20.62;100775.19;5003877;28;20388;-71
2023/06/15 11:35:51;;;;;;;0.00;0.00;;;;;;;41.85;18.63;100771.75;4994810;28;20030;-71